createdAt,value
2022-10-02T00:04:27.036Z,99973.40
2022-10-02T00:09:40.058Z,99977.05
2022-10-02T00:14:46.256Z,99984.33
2022-10-02T00:19:54.155Z,99986.45
2022-10-02T00:25:01.522Z,99988.33
2022-10-02T00:30:10.257Z,99991.77
2022-10-02T00:35:43.396Z,99994.77
2022-10-02T00:41:16.721Z,99997.59
2022-10-02T00:46:35.342Z,100000.23
2022-10-02T00:51:56.527Z,100006.48
2022-10-02T00:57:11.355Z,100014.89
2022-10-02T01:02:50.274Z,100021.52
2022-10-02T01:07:55.691Z,100021.92
2022-10-02T01:12:59.299Z,100022.66
2022-10-02T01:18:04.237Z,100036.71
2022-10-02T01:23:18.861Z,100034.96
2022-10-02T01:28:23.180Z,100038.41
2022-10-02T01:33:27.059Z,100043.33
2022-10-02T01:38:31.155Z,100047.51
2022-10-02T01:43:38.769Z,100052.24
2022-10-02T01:48:52.975Z,100055.73
2022-10-02T01:54:04.981Z,100059.92
2022-10-02T01:59:20.061Z,100061.39
2022-10-02T02:04:27.706Z,100066.14
2022-10-02T02:09:41.246Z,100075.01
2022-10-02T02:14:51.687Z,100082.25
2022-10-02T02:20:01.988Z,100091.48
2022-10-02T02:25:12.743Z,100093.23
2022-10-02T02:30:17.664Z,100098.39
2022-10-02T02:35:26.366Z,100099.09
2022-10-02T02:40:33.136Z,100099.47
2022-10-02T02:45:42.575Z,100099.89
2022-10-02T02:50:50.660Z,100103.23
2022-10-02T02:55:58.889Z,100102.21
2022-10-02T03:01:02.695Z,100112.05
2022-10-02T03:06:26.086Z,100120.27
2022-10-02T03:11:41.676Z,100122.38
2022-10-02T03:16:52.396Z,100120.30
2022-10-02T03:22:04.208Z,100124.79
2022-10-02T03:27:12.667Z,100126.95
2022-10-02T03:32:18.535Z,100134.15
2022-10-02T03:37:23.596Z,100131.35
2022-10-02T03:42:31.376Z,100137.59
2022-10-02T03:47:35.405Z,100134.56
2022-10-02T03:52:39.272Z,100139.98
2022-10-02T03:57:46.290Z,100138.20
2022-10-02T04:02:55.241Z,100140.83
2022-10-02T04:08:05.316Z,100141.85
2022-10-02T04:13:14.449Z,100144.40
2022-10-02T04:18:24.930Z,100155.35
2022-10-02T04:23:33.756Z,100165.81
2022-10-02T04:28:42.438Z,100171.22
2022-10-02T04:33:46.208Z,100177.41
2022-10-02T04:39:10.859Z,100180.61
2022-10-02T04:44:27.005Z,100182.16
2022-10-02T04:50:07.564Z,100190.77
2022-10-02T04:55:30.856Z,100194.61
2022-10-02T05:00:43.940Z,100203.52
2022-10-02T05:06:03.392Z,100212.81
2022-10-02T05:11:21.855Z,100216.98
2022-10-02T05:16:44.746Z,100214.88
2022-10-02T05:22:01.630Z,100220.60
2022-10-02T05:27:22.107Z,100220.86
2022-10-02T05:32:49.557Z,100222.94
2022-10-02T05:38:07.654Z,100228.64
2022-10-02T05:43:13.773Z,100234.90
2022-10-02T05:48:23.308Z,100243.70
2022-10-02T05:53:35.148Z,100244.22
2022-10-02T05:58:47.344Z,100246.27
2022-10-02T06:04:02.113Z,100247.19
2022-10-02T06:09:20.634Z,100253.16
2022-10-02T06:14:34.280Z,100253.10
2022-10-02T06:19:42.981Z,100251.38
2022-10-02T06:24:50.535Z,100250.48
2022-10-02T06:30:01.820Z,100252.13
2022-10-02T06:35:11.725Z,100253.31
2022-10-02T06:40:50.758Z,100258.88
2022-10-02T06:46:03.039Z,100261.02
2022-10-02T06:51:17.450Z,100259.41
2022-10-02T06:56:36.877Z,100257.90
2022-10-02T07:01:57.406Z,100263.30
2022-10-02T07:07:27.902Z,100267.52
2022-10-02T07:12:57.541Z,100275.45
2022-10-02T07:18:17.024Z,100276.11
2022-10-02T07:23:43.670Z,100281.45
2022-10-02T07:28:56.023Z,100280.83
2022-10-02T07:34:14.783Z,100291.27
2022-10-02T07:39:32.668Z,100297.78
2022-10-02T07:45:07.622Z,100302.03
2022-10-02T07:50:15.304Z,100297.63
2022-10-02T07:55:22.634Z,100299.08
2022-10-02T08:00:29.978Z,100294.98
2022-10-02T08:05:39.615Z,100292.98
2022-10-02T08:10:49.180Z,100298.89
2022-10-02T08:15:56.678Z,100300.95
2022-10-02T08:21:01.998Z,100301.13
2022-10-02T08:26:12.706Z,100297.55
2022-10-02T08:31:16.835Z,100297.85
2022-10-02T08:36:53.573Z,100299.31
2022-10-02T08:42:37.692Z,100298.05
2022-10-02T08:48:23.003Z,100293.77
2022-10-02T08:53:57.124Z,100292.53
2022-10-02T08:59:36.367Z,100294.40
2022-10-02T09:05:22.638Z,100294.68
2022-10-02T09:10:52.172Z,100301.59
2022-10-02T09:16:09.911Z,100303.80
2022-10-02T09:21:19.348Z,100311.29
2022-10-02T09:26:41.765Z,100307.70
2022-10-02T09:32:34.126Z,100314.77
2022-10-02T09:38:15.585Z,100311.73
2022-10-02T09:44:01.003Z,100307.77
2022-10-02T09:49:48.409Z,100309.34
2022-10-02T09:55:26.109Z,100315.52
2022-10-02T10:00:58.058Z,100314.77
2022-10-02T10:06:27.625Z,100319.08
2022-10-02T10:12:02.270Z,100318.55
2022-10-02T10:17:43.985Z,100309.25
2022-10-02T10:23:14.059Z,100312.09
2022-10-02T10:29:13.323Z,100303.11
2022-10-02T10:34:45.607Z,100296.15
2022-10-02T10:40:24.493Z,100295.82
2022-10-02T10:45:42.282Z,100291.50
2022-10-02T10:50:59.922Z,100290.98
2022-10-02T10:56:36.330Z,100282.24
2022-10-02T11:01:51.142Z,100283.30
2022-10-02T11:07:20.612Z,100281.66
2022-10-02T11:12:44.583Z,100280.40
2022-10-02T11:18:04.762Z,100280.55
2022-10-02T11:23:43.381Z,100276.42
2022-10-02T11:29:00.021Z,100275.96
2022-10-02T11:34:42.213Z,100279.64
2022-10-02T11:40:21.973Z,100275.25
2022-10-02T11:45:56.082Z,100272.42
2022-10-02T11:51:24.747Z,100269.21
2022-10-02T11:57:00.153Z,100277.72
2022-10-02T12:02:16.171Z,100275.83
2022-10-02T12:07:35.868Z,100276.52
2022-10-02T12:12:55.277Z,100277.45
2022-10-02T12:18:21.483Z,100291.39
2022-10-02T12:23:57.835Z,100291.80
2022-10-02T12:29:10.262Z,100290.41
2022-10-02T12:34:32.657Z,100282.69
2022-10-02T12:39:47.557Z,100271.61
2022-10-02T12:45:21.259Z,100264.18
2022-10-02T12:50:47.062Z,100253.29
2022-10-02T12:56:15.981Z,100249.31
2022-10-02T13:01:37.080Z,100247.69
2022-10-02T13:07:19.170Z,100240.54
2022-10-02T13:12:40.504Z,100234.90
2022-10-02T13:17:51.150Z,100222.73
2022-10-02T13:23:06.104Z,100222.56
2022-10-02T13:28:30.841Z,100222.89
2022-10-02T13:34:06.575Z,100217.41
2022-10-02T13:39:33.165Z,100220.29
2022-10-02T13:44:41.939Z,100215.77
2022-10-02T13:50:06.074Z,100216.18
2022-10-02T13:55:22.799Z,100215.81
2022-10-02T14:00:53.848Z,100214.14
2022-10-02T14:06:05.429Z,100215.14
2022-10-02T14:11:23.741Z,100214.73
2022-10-02T14:16:42.547Z,100216.55
2022-10-02T14:21:56.423Z,100218.09
2022-10-02T14:27:09.087Z,100213.73
2022-10-02T14:32:46.154Z,100205.33
2022-10-02T14:38:25.964Z,100207.38
2022-10-02T14:43:51.339Z,100199.36
2022-10-02T14:49:13.264Z,100195.83
2022-10-02T14:54:46.292Z,100209.61
2022-10-02T15:00:18.799Z,100221.77
2022-10-02T15:05:38.131Z,100230.06
2022-10-02T15:10:44.741Z,100230.13
2022-10-02T15:16:17.113Z,100232.29
2022-10-02T15:21:41.690Z,100231.34
2022-10-02T15:26:54.961Z,100238.92
2022-10-02T15:32:28.545Z,100250.19
2022-10-02T15:37:45.040Z,100252.03
2022-10-02T15:43:32.727Z,100253.52
2022-10-02T15:49:24.554Z,100244.67
2022-10-02T15:54:48.687Z,100238.78
2022-10-02T16:00:02.761Z,100251.33
2022-10-02T16:05:28.893Z,100258.55
2022-10-02T16:10:49.133Z,100266.03
2022-10-02T16:15:59.774Z,100276.58
2022-10-02T16:21:25.713Z,100288.61
2022-10-02T16:27:03.913Z,100285.55
2022-10-02T16:32:19.872Z,100273.08
2022-10-02T16:37:28.943Z,100265.98
2022-10-02T16:42:49.409Z,100275.05
2022-10-02T16:48:02.201Z,100276.30
2022-10-02T16:53:14.868Z,100270.23
2022-10-02T16:58:32.209Z,100277.61
2022-10-02T17:03:44.293Z,100277.91
2022-10-02T17:09:06.370Z,100283.35
2022-10-02T17:14:18.294Z,100287.96
2022-10-02T17:19:26.051Z,100286.92
2022-10-02T17:24:39.587Z,100293.38
2022-10-02T17:29:54.311Z,100294.36
2022-10-02T17:34:59.516Z,100296.34
2022-10-02T17:40:14.001Z,100293.35
2022-10-02T17:45:32.057Z,100297.52
2022-10-02T17:50:50.802Z,100306.32
2022-10-02T17:56:30.294Z,100309.71
2022-10-02T18:01:43.691Z,100311.27
2022-10-02T18:06:59.515Z,100319.45
2022-10-02T18:12:30.189Z,100314.27
2022-10-02T18:17:47.534Z,100315.92
2022-10-02T18:23:07.236Z,100316.64
2022-10-02T18:28:26.472Z,100322.05
2022-10-02T18:34:06.390Z,100323.74
2022-10-02T18:39:25.550Z,100327.39
2022-10-02T18:44:44.472Z,100331.58
2022-10-02T18:50:03.128Z,100336.35
2022-10-02T18:55:34.031Z,100336.50
2022-10-02T19:01:08.597Z,100337.55
2022-10-02T19:06:19.494Z,100333.48
2022-10-02T19:11:29.354Z,100334.10
2022-10-02T19:16:35.379Z,100335.92
2022-10-02T19:21:42.311Z,100335.96
2022-10-02T19:26:51.394Z,100331.40
2022-10-02T19:31:59.232Z,100324.69
2022-10-02T19:37:05.478Z,100321.02
2022-10-02T19:42:18.503Z,100328.49
2022-10-02T19:47:27.311Z,100324.52
2022-10-02T19:52:43.542Z,100324.48
2022-10-02T19:57:49.957Z,100329.19
2022-10-02T20:02:59.084Z,100327.98
2022-10-02T20:08:11.643Z,100330.60
2022-10-02T20:13:23.218Z,100330.76
2022-10-02T20:18:29.554Z,100330.23
2022-10-02T20:23:39.398Z,100328.87
2022-10-02T20:28:48.494Z,100330.80
2022-10-02T20:33:57.917Z,100324.45
2022-10-02T20:39:05.574Z,100317.01
2022-10-02T20:44:12.772Z,100318.80
2022-10-02T20:49:40.089Z,100320.31
2022-10-02T20:54:58.349Z,100318.77
2022-10-02T21:00:09.228Z,100313.55
2022-10-02T21:05:35.936Z,100318.75
2022-10-02T21:11:15.495Z,100321.16
2022-10-02T21:16:57.608Z,100320.53
2022-10-02T21:22:36.148Z,100322.54
2022-10-02T21:28:14.168Z,100317.56
2022-10-02T21:33:22.530Z,100316.33
2022-10-02T21:39:04.022Z,100317.77
2022-10-02T21:44:41.480Z,100315.38
2022-10-02T21:50:22.442Z,100318.31
2022-10-02T21:55:57.921Z,100315.97
2022-10-02T22:01:29.252Z,100321.05
2022-10-02T22:06:44.596Z,100319.48
2022-10-02T22:12:01.530Z,100316.06
2022-10-02T22:17:16.597Z,100314.83
2022-10-02T22:22:35.557Z,100319.80
2022-10-02T22:28:16.595Z,100316.94
2022-10-02T22:33:37.204Z,100317.55
2022-10-02T22:38:45.761Z,100319.48
2022-10-02T22:43:54.740Z,100318.02
2022-10-02T22:49:12.418Z,100319.51
2022-10-02T22:54:25.490Z,100317.77
2022-10-02T22:59:32.720Z,100317.40
2022-10-02T23:04:46.729Z,100312.52
2022-10-02T23:09:58.646Z,100317.06
2022-10-02T23:15:24.048Z,100306.46
2022-10-02T23:20:35.241Z,100314.48
2022-10-02T23:25:48.967Z,100309.84
2022-10-02T23:31:05.893Z,100306.78
2022-10-02T23:36:24.305Z,100307.72
2022-10-02T23:41:39.072Z,100299.97
2022-10-02T23:47:00.997Z,100309.33
2022-10-02T23:52:31.551Z,100304.16
2022-10-02T23:57:51.367Z,100305.80
